sensor_id;sensor_type;location;lat;lon;timestamp;pressure;altitude;pressure_sealevel;temperature;humidity
43115;BME280;28727;50.068;14.452;2023-04-23T00:01:04;98591.00;;;15.22;51.61
43115;BME280;28727;50.068;14.452;2023-04-23T00:03:38;98594.94;;;15.19;51.95
43115;BME280;28727;50.068;14.452;2023-04-23T00:06:12;98595.56;;;15.14;52.46
43115;BME280;28727;50.068;14.452;2023-04-23T00:08:45;98593.56;;;15.10;52.54
43115;BME280;28727;50.068;14.452;2023-04-23T00:11:18;98596.06;;;15.05;52.36
43115;BME280;28727;50.068;14.452;2023-04-23T00:13:50;98591.38;;;15.00;53.03
43115;BME280;28727;50.068;14.452;2023-04-23T00:16:22;98590.16;;;14.96;53.53
43115;BME280;28727;50.068;14.452;2023-04-23T00:18:55;98582.84;;;14.92;53.62
43115;BME280;28727;50.068;14.452;2023-04-23T00:21:27;98582.69;;;14.87;53.83
43115;BME280;28727;50.068;14.452;2023-04-23T00:23:58;98578.81;;;14.83;54.09
43115;BME280;28727;50.068;14.452;2023-04-23T00:26:56;98576.00;;;14.78;54.22
43115;BME280;28727;50.068;14.452;2023-04-23T00:29:32;98575.84;;;14.72;54.65
43115;BME280;28727;50.068;14.452;2023-04-23T00:32:04;98563.41;;;14.66;54.20
43115;BME280;28727;50.068;14.452;2023-04-23T00:34:41;98569.56;;;14.60;54.94
43115;BME280;28727;50.068;14.452;2023-04-23T00:37:14;98567.13;;;14.59;54.76
43115;BME280;28727;50.068;14.452;2023-04-23T00:39:46;98569.19;;;14.50;55.24
43115;BME280;28727;50.068;14.452;2023-04-23T00:42:19;98563.31;;;14.48;54.77
43115;BME280;28727;50.068;14.452;2023-04-23T00:44:51;98560.44;;;14.43;55.56
43115;BME280;28727;50.068;14.452;2023-04-23T00:47:23;98559.84;;;14.34;56.09
43115;BME280;28727;50.068;14.452;2023-04-23T00:49:55;98562.72;;;14.33;55.90
43115;BME280;28727;50.068;14.452;2023-04-23T00:52:28;98559.25;;;14.32;55.49
43115;BME280;28727;50.068;14.452;2023-04-23T00:55:04;98565.81;;;14.30;55.67
43115;BME280;28727;50.068;14.452;2023-04-23T00:57:37;98559.88;;;14.28;55.71
43115;BME280;28727;50.068;14.452;2023-04-23T01:00:09;98556.84;;;14.24;55.77
43115;BME280;28727;50.068;14.452;2023-04-23T01:02:44;98565.19;;;14.28;55.24
43115;BME280;28727;50.068;14.452;2023-04-23T01:05:18;98562.13;;;14.31;55.38
43115;BME280;28727;50.068;14.452;2023-04-23T01:07:50;98560.91;;;14.27;55.87
43115;BME280;28727;50.068;14.452;2023-04-23T01:10:22;98571.53;;;14.27;55.63
43115;BME280;28727;50.068;14.452;2023-04-23T01:13:19;98561.34;;;14.24;55.28
43115;BME280;28727;50.068;14.452;2023-04-23T01:15:56;98564.19;;;14.22;54.60
43115;BME280;28727;50.068;14.452;2023-04-23T01:18:27;98562.38;;;14.23;55.38
43115;BME280;28727;50.068;14.452;2023-04-23T01:21:24;98566.84;;;14.22;55.73
43115;BME280;28727;50.068;14.452;2023-04-23T01:23:57;98561.16;;;14.19;55.47
43115;BME280;28727;50.068;14.452;2023-04-23T01:26:28;98559.94;;;14.15;55.66
43115;BME280;28727;50.068;14.452;2023-04-23T01:29:26;98559.34;;;14.13;56.19
43115;BME280;28727;50.068;14.452;2023-04-23T01:31:58;98549.94;;;14.10;56.95
43115;BME280;28727;50.068;14.452;2023-04-23T01:34:30;98563.22;;;14.10;56.93
43115;BME280;28727;50.068;14.452;2023-04-23T01:37:03;98567.72;;;14.10;56.30
43115;BME280;28727;50.068;14.452;2023-04-23T01:39:36;98572.22;;;14.09;56.73
43115;BME280;28727;50.068;14.452;2023-04-23T01:42:07;98573.84;;;14.10;57.24
43115;BME280;28727;50.068;14.452;2023-04-23T01:44:42;98573.25;;;14.08;57.38
43115;BME280;28727;50.068;14.452;2023-04-23T01:47:21;98566.94;;;14.03;57.14
43115;BME280;28727;50.068;14.452;2023-04-23T01:49:54;98562.06;;;14.00;57.46
43115;BME280;28727;50.068;14.452;2023-04-23T01:52:26;98560.63;;;13.97;57.51
43115;BME280;28727;50.068;14.452;2023-04-23T01:55:00;98560.25;;;13.87;58.09
43115;BME280;28727;50.068;14.452;2023-04-23T01:57:32;98558.81;;;13.84;57.21
43115;BME280;28727;50.068;14.452;2023-04-23T02:00:07;98558.63;;;13.86;57.12
43115;BME280;28727;50.068;14.452;2023-04-23T02:02:45;98560.88;;;13.89;56.37
43115;BME280;28727;50.068;14.452;2023-04-23T02:05:18;98562.88;;;13.93;56.36
43115;BME280;28727;50.068;14.452;2023-04-23T02:07:51;98559.81;;;13.97;55.85
43115;BME280;28727;50.068;14.452;2023-04-23T02:10:23;98556.75;;;14.00;55.40
43115;BME280;28727;50.068;14.452;2023-04-23T02:12:57;98560.00;;;14.02;55.66
43115;BME280;28727;50.068;14.452;2023-04-23T02:15:33;98559.41;;;14.00;56.00
43115;BME280;28727;50.068;14.452;2023-04-23T02:18:05;98556.13;;;13.98;55.99
43115;BME280;28727;50.068;14.452;2023-04-23T02:20:40;98557.97;;;13.97;55.72
43115;BME280;28727;50.068;14.452;2023-04-23T02:23:12;98551.84;;;13.97;55.88
43115;BME280;28727;50.068;14.452;2023-04-23T02:25:43;98558.56;;;13.99;55.70
43115;BME280;28727;50.068;14.452;2023-04-23T02:28:18;98566.34;;;14.01;55.66
43115;BME280;28727;50.068;14.452;2023-04-23T02:30:50;98559.78;;;14.03;56.10
43115;BME280;28727;50.068;14.452;2023-04-23T02:33:22;98555.28;;;14.04;55.75
43115;BME280;28727;50.068;14.452;2023-04-23T02:35:54;98563.06;;;14.05;55.88
43115;BME280;28727;50.068;14.452;2023-04-23T02:38:25;98562.22;;;14.05;56.37
43115;BME280;28727;50.068;14.452;2023-04-23T02:40:57;98566.38;;;13.94;56.70
43115;BME280;28727;50.068;14.452;2023-04-23T02:43:29;98570.22;;;13.98;56.25
43115;BME280;28727;50.068;14.452;2023-04-23T02:46:01;98561.63;;;13.96;56.47
43115;BME280;28727;50.068;14.452;2023-04-23T02:48:41;98557.16;;;13.97;56.32
43115;BME280;28727;50.068;14.452;2023-04-23T02:51:14;98571.88;;;13.92;56.65
43115;BME280;28727;50.068;14.452;2023-04-23T02:54:10;98572.88;;;13.98;56.26
43115;BME280;28727;50.068;14.452;2023-04-23T02:56:43;98562.66;;;14.02;56.14
43115;BME280;28727;50.068;14.452;2023-04-23T02:59:15;98567.97;;;14.02;56.17
43115;BME280;28727;50.068;14.452;2023-04-23T03:02:14;98565.94;;;13.97;56.62
43115;BME280;28727;50.068;14.452;2023-04-23T03:04:46;98561.25;;;13.92;56.60
43115;BME280;28727;50.068;14.452;2023-04-23T03:07:18;98564.94;;;13.91;56.31
43115;BME280;28727;50.068;14.452;2023-04-23T03:09:50;98561.69;;;13.89;56.68
43115;BME280;28727;50.068;14.452;2023-04-23T03:12:22;98570.66;;;13.88;56.80
43115;BME280;28727;50.068;14.452;2023-04-23T03:14:57;98568.22;;;13.87;56.38
43115;BME280;28727;50.068;14.452;2023-04-23T03:17:33;98574.53;;;13.86;56.51
43115;BME280;28727;50.068;14.452;2023-04-23T03:20:07;98568.03;;;13.82;57.02
43115;BME280;28727;50.068;14.452;2023-04-23T03:22:42;98568.22;;;13.80;57.01
43115;BME280;28727;50.068;14.452;2023-04-23T03:25:14;98576.00;;;13.82;56.94
43115;BME280;28727;50.068;14.452;2023-04-23T03:27:45;98567.63;;;13.78;57.22
43115;BME280;28727;50.068;14.452;2023-04-23T03:30:21;98571.13;;;13.72;57.16
43115;BME280;28727;50.068;14.452;2023-04-23T03:32:56;98579.50;;;13.69;57.25
43115;BME280;28727;50.068;14.452;2023-04-23T03:35:29;98574.19;;;13.63;57.76
43115;BME280;28727;50.068;14.452;2023-04-23T03:38:04;98578.91;;;13.61;58.01
43115;BME280;28727;50.068;14.452;2023-04-23T03:40:38;98574.22;;;13.49;57.89
43115;BME280;28727;50.068;14.452;2023-04-23T03:43:11;98572.59;;;13.48;58.36
43115;BME280;28727;50.068;14.452;2023-04-23T03:46:06;98574.00;;;13.51;58.28
43115;BME280;28727;50.068;14.452;2023-04-23T03:48:42;98570.53;;;13.57;58.23
43115;BME280;28727;50.068;14.452;2023-04-23T03:51:20;98552.56;;;13.59;58.14
43115;BME280;28727;50.068;14.452;2023-04-23T03:53:53;98558.28;;;13.56;58.27
43115;BME280;28727;50.068;14.452;2023-04-23T03:56:44;98559.28;;;13.62;58.20
43115;BME280;28727;50.068;14.452;2023-04-23T03:59:21;98545.59;;;13.71;57.73
43115;BME280;28727;50.068;14.452;2023-04-23T04:01:58;98533.72;;;13.80;57.24
43115;BME280;28727;50.068;14.452;2023-04-23T04:04:31;98529.66;;;13.78;57.75
43115;BME280;28727;50.068;14.452;2023-04-23T04:07:03;98537.81;;;13.76;57.75
43115;BME280;28727;50.068;14.452;2023-04-23T04:09:38;98539.47;;;13.77;57.60
43115;BME280;28727;50.068;14.452;2023-04-23T04:12:10;98532.28;;;13.84;57.57
43115;BME280;28727;50.068;14.452;2023-04-23T04:14:42;98533.31;;;13.90;57.92
43115;BME280;28727;50.068;14.452;2023-04-23T04:17:14;98529.19;;;13.94;57.52
43115;BME280;28727;50.068;14.452;2023-04-23T04:19:46;98531.22;;;13.99;57.85
43115;BME280;28727;50.068;14.452;2023-04-23T04:22:19;98527.31;;;14.01;57.85
43115;BME280;28727;50.068;14.452;2023-04-23T04:24:51;98521.38;;;14.06;57.85
43115;BME280;28727;50.068;14.452;2023-04-23T04:27:23;98525.25;;;14.03;57.51
43115;BME280;28727;50.068;14.452;2023-04-23T04:29:54;98523.41;;;14.04;58.35
43115;BME280;28727;50.068;14.452;2023-04-23T04:32:27;98520.34;;;14.07;58.35
43115;BME280;28727;50.068;14.452;2023-04-23T04:35:00;98519.91;;;14.10;58.39
43115;BME280;28727;50.068;14.452;2023-04-23T04:37:33;98520.09;;;14.15;58.83
43115;BME280;28727;50.068;14.452;2023-04-23T04:40:06;98531.13;;;14.18;58.97
43115;BME280;28727;50.068;14.452;2023-04-23T04:43:04;98544.59;;;14.23;59.33
43115;BME280;28727;50.068;14.452;2023-04-23T04:45:38;98550.06;;;14.28;59.37
43115;BME280;28727;50.068;14.452;2023-04-23T04:48:10;98557.88;;;14.23;59.60
43115;BME280;28727;50.068;14.452;2023-04-23T04:51:06;98555.22;;;14.23;59.55
43115;BME280;28727;50.068;14.452;2023-04-23T04:53:38;98557.88;;;14.23;59.21
43115;BME280;28727;50.068;14.452;2023-04-23T04:56:09;98562.38;;;14.23;60.46
43115;BME280;28727;50.068;14.452;2023-04-23T04:58:41;98559.88;;;14.28;60.33
43115;BME280;28727;50.068;14.452;2023-04-23T05:01:13;98559.09;;;14.21;60.68
43115;BME280;28727;50.068;14.452;2023-04-23T05:03:45;98564.19;;;14.22;60.52
43115;BME280;28727;50.068;14.452;2023-04-23T05:06:17;98558.72;;;14.17;60.46
43115;BME280;28727;50.068;14.452;2023-04-23T05:08:49;98558.91;;;14.16;60.80
43115;BME280;28727;50.068;14.452;2023-04-23T05:11:21;98564.41;;;14.21;60.92
43115;BME280;28727;50.068;14.452;2023-04-23T05:13:53;98571.94;;;14.30;60.65
43115;BME280;28727;50.068;14.452;2023-04-23T05:16:24;98583.34;;;14.38;60.14
43115;BME280;28727;50.068;14.452;2023-04-23T05:19:22;98576.19;;;14.45;59.65
43115;BME280;28727;50.068;14.452;2023-04-23T05:21:54;98570.84;;;14.51;59.09
43115;BME280;28727;50.068;14.452;2023-04-23T05:24:26;98569.81;;;14.52;59.94
43115;BME280;28727;50.068;14.452;2023-04-23T05:26:57;98574.13;;;14.47;60.50
43115;BME280;28727;50.068;14.452;2023-04-23T05:29:29;98574.91;;;14.54;60.44
43115;BME280;28727;50.068;14.452;2023-04-23T05:32:02;98576.13;;;14.58;60.14
43115;BME280;28727;50.068;14.452;2023-04-23T05:34:34;98584.06;;;14.64;59.97
43115;BME280;28727;50.068;14.452;2023-04-23T05:37:30;98581.53;;;14.76;59.67
43115;BME280;28727;50.068;14.452;2023-04-23T05:40:01;98583.94;;;14.84;60.19
43115;BME280;28727;50.068;14.452;2023-04-23T05:42:38;98581.63;;;14.94;59.92
43115;BME280;28727;50.068;14.452;2023-04-23T05:45:34;98588.06;;;15.05;59.63
43115;BME280;28727;50.068;14.452;2023-04-23T05:48:06;98588.44;;;15.08;59.53
43115;BME280;28727;50.068;14.452;2023-04-23T05:50:38;98586.75;;;15.14;59.77
43115;BME280;28727;50.068;14.452;2023-04-23T05:53:10;98584.00;;;15.27;58.94
43115;BME280;28727;50.068;14.452;2023-04-23T05:55:42;98584.56;;;15.36;58.79
43115;BME280;28727;50.068;14.452;2023-04-23T05:58:16;98586.28;;;15.48;58.69
43115;BME280;28727;50.068;14.452;2023-04-23T06:00:49;98585.44;;;15.54;58.42
43115;BME280;28727;50.068;14.452;2023-04-23T06:03:27;98589.22;;;15.65;58.02
43115;BME280;28727;50.068;14.452;2023-04-23T06:05:59;98590.78;;;15.73;58.03
43115;BME280;28727;50.068;14.452;2023-04-23T06:08:31;98583.25;;;15.88;58.37
43115;BME280;28727;50.068;14.452;2023-04-23T06:11:05;98576.16;;;16.18;57.67
43115;BME280;28727;50.068;14.452;2023-04-23T06:13:38;98587.34;;;16.57;56.52
43115;BME280;28727;50.068;14.452;2023-04-23T06:16:14;98583.16;;;16.79;55.55
43115;BME280;28727;50.068;14.452;2023-04-23T06:18:46;98582.28;;;17.08;54.91
43115;BME280;28727;50.068;14.452;2023-04-23T06:21:21;98583.28;;;17.26;53.89
43115;BME280;28727;50.068;14.452;2023-04-23T06:23:52;98579.56;;;17.50;53.27
43115;BME280;28727;50.068;14.452;2023-04-23T06:26:25;98579.72;;;17.67;52.67
43115;BME280;28727;50.068;14.452;2023-04-23T06:29:01;98574.81;;;17.75;52.31
43115;BME280;28727;50.068;14.452;2023-04-23T06:32:00;98586.63;;;17.91;51.48
43115;BME280;28727;50.068;14.452;2023-04-23T06:34:33;98584.09;;;18.08;51.08
43115;BME280;28727;50.068;14.452;2023-04-23T06:37:04;98585.78;;;18.25;50.63
43115;BME280;28727;50.068;14.452;2023-04-23T06:40:01;98581.72;;;18.23;50.25
43115;BME280;28727;50.068;14.452;2023-04-23T06:42:33;98590.94;;;18.04;50.05
43115;BME280;28727;50.068;14.452;2023-04-23T06:45:25;98579.06;;;18.11;50.21
43115;BME280;28727;50.068;14.452;2023-04-23T06:47:56;98586.44;;;18.32;50.17
43115;BME280;28727;50.068;14.452;2023-04-23T06:50:28;98582.13;;;18.55;49.45
43115;BME280;28727;50.068;14.452;2023-04-23T06:53:00;98579.75;;;18.58;49.18
43115;BME280;28727;50.068;14.452;2023-04-23T06:55:32;98576.38;;;18.63;49.13
43115;BME280;28727;50.068;14.452;2023-04-23T06:58:07;98577.22;;;18.80;48.99
43115;BME280;28727;50.068;14.452;2023-04-23T07:00:38;98572.69;;;18.97;47.96
43115;BME280;28727;50.068;14.452;2023-04-23T07:03:11;98568.06;;;19.09;47.69
43115;BME280;28727;50.068;14.452;2023-04-23T07:05:43;98575.47;;;19.19;47.79
43115;BME280;28727;50.068;14.452;2023-04-23T07:08:14;98571.50;;;19.21;47.45
43115;BME280;28727;50.068;14.452;2023-04-23T07:10:46;98574.09;;;19.16;47.93
43115;BME280;28727;50.068;14.452;2023-04-23T07:13:18;98570.53;;;19.11;48.12
43115;BME280;28727;50.068;14.452;2023-04-23T07:15:50;98572.22;;;19.17;48.13
43115;BME280;28727;50.068;14.452;2023-04-23T07:18:22;98568.66;;;19.28;47.97
43115;BME280;28727;50.068;14.452;2023-04-23T07:20:54;98569.47;;;19.29;47.90
43115;BME280;28727;50.068;14.452;2023-04-23T07:23:26;98577.19;;;19.25;48.07
43115;BME280;28727;50.068;14.452;2023-04-23T07:26:23;98573.47;;;19.26;47.91
43115;BME280;28727;50.068;14.452;2023-04-23T07:28:55;98580.50;;;19.32;47.71
43115;BME280;28727;50.068;14.452;2023-04-23T07:31:27;98575.56;;;19.41;47.98
43115;BME280;28727;50.068;14.452;2023-04-23T07:33:59;98565.34;;;19.54;47.98
43115;BME280;28727;50.068;14.452;2023-04-23T07:36:31;98562.97;;;19.58;47.63
43115;BME280;28727;50.068;14.452;2023-04-23T07:39:04;98570.38;;;19.51;47.79
43115;BME280;28727;50.068;14.452;2023-04-23T07:41:39;98574.16;;;19.38;47.55
43115;BME280;28727;50.068;14.452;2023-04-23T07:44:36;98577.41;;;19.40;47.55
43115;BME280;28727;50.068;14.452;2023-04-23T07:47:08;98570.63;;;19.49;47.55
43115;BME280;28727;50.068;14.452;2023-04-23T07:49:39;98575.16;;;19.66;47.07
43115;BME280;28727;50.068;14.452;2023-04-23T07:52:36;98571.50;;;19.72;46.64
43115;BME280;28727;50.068;14.452;2023-04-23T07:55:08;98573.53;;;19.65;46.80
43115;BME280;28727;50.068;14.452;2023-04-23T07:57:40;98575.41;;;19.64;47.22
43115;BME280;28727;50.068;14.452;2023-04-23T08:00:12;98575.22;;;19.71;46.96
43115;BME280;28727;50.068;14.452;2023-04-23T08:02:45;98584.81;;;19.67;47.17
43115;BME280;28727;50.068;14.452;2023-04-23T08:05:18;98575.28;;;19.76;46.94
43115;BME280;28727;50.068;14.452;2023-04-23T08:07:50;98583.09;;;19.77;46.63
43115;BME280;28727;50.068;14.452;2023-04-23T08:10:46;98582.63;;;19.63;47.20
43115;BME280;28727;50.068;14.452;2023-04-23T08:13:17;98583.19;;;19.66;47.04
43115;BME280;28727;50.068;14.452;2023-04-23T08:15:50;98581.50;;;19.59;46.90
43115;BME280;28727;50.068;14.452;2023-04-23T08:18:22;98592.22;;;19.59;47.01
43115;BME280;28727;50.068;14.452;2023-04-23T08:20:54;98593.25;;;19.58;47.19
43115;BME280;28727;50.068;14.452;2023-04-23T08:23:27;98594.53;;;19.39;47.77
43115;BME280;28727;50.068;14.452;2023-04-23T08:25:59;98594.97;;;19.31;47.52
43115;BME280;28727;50.068;14.452;2023-04-23T08:28:37;98594.00;;;19.37;47.27
43115;BME280;28727;50.068;14.452;2023-04-23T08:31:09;98592.19;;;19.43;47.02
43115;BME280;28727;50.068;14.452;2023-04-23T08:33:56;98599.19;;;19.44;46.28
43115;BME280;28727;50.068;14.452;2023-04-23T08:36:28;98603.53;;;19.33;44.95
43115;BME280;28727;50.068;14.452;2023-04-23T08:38:59;98598.47;;;19.32;44.56
43115;BME280;28727;50.068;14.452;2023-04-23T08:41:37;98599.81;;;19.34;43.78
43115;BME280;28727;50.068;14.452;2023-04-23T08:44:17;98595.69;;;19.43;43.55
43115;BME280;28727;50.068;14.452;2023-04-23T08:46:49;98596.69;;;19.54;43.09
43115;BME280;28727;50.068;14.452;2023-04-23T08:49:21;98590.00;;;19.73;42.73
43115;BME280;28727;50.068;14.452;2023-04-23T08:51:53;98596.34;;;20.06;42.50
43115;BME280;28727;50.068;14.452;2023-04-23T08:54:26;98602.34;;;20.13;41.45
43115;BME280;28727;50.068;14.452;2023-04-23T08:57:04;98593.84;;;19.99;42.28
43115;BME280;28727;50.068;14.452;2023-04-23T08:59:38;98606.50;;;20.03;42.58
43115;BME280;28727;50.068;14.452;2023-04-23T09:02:15;98608.88;;;20.00;42.31
43115;BME280;28727;50.068;14.452;2023-04-23T09:05:13;98617.66;;;19.95;42.36
43115;BME280;28727;50.068;14.452;2023-04-23T09:07:45;98615.72;;;19.74;42.51
43115;BME280;28727;50.068;14.452;2023-04-23T09:10:17;98622.06;;;19.68;42.85
43115;BME280;28727;50.068;14.452;2023-04-23T09:12:49;98614.38;;;19.72;43.03
43115;BME280;28727;50.068;14.452;2023-04-23T09:15:21;98622.25;;;19.61;43.78
43115;BME280;28727;50.068;14.452;2023-04-23T09:17:54;98623.56;;;19.59;44.10
43115;BME280;28727;50.068;14.452;2023-04-23T09:20:29;98634.94;;;19.49;44.22
43115;BME280;28727;50.068;14.452;2023-04-23T09:23:06;98637.41;;;19.39;44.28
43115;BME280;28727;50.068;14.452;2023-04-23T09:25:38;98635.75;;;19.38;44.27
43115;BME280;28727;50.068;14.452;2023-04-23T09:28:10;98635.13;;;19.31;44.65
43115;BME280;28727;50.068;14.452;2023-04-23T09:30:43;98645.28;;;19.29;44.92
43115;BME280;28727;50.068;14.452;2023-04-23T09:33:16;98636.66;;;19.27;45.26
43115;BME280;28727;50.068;14.452;2023-04-23T09:35:48;98648.81;;;19.18;45.22
43115;BME280;28727;50.068;14.452;2023-04-23T09:38:20;98647.69;;;19.14;45.53
43115;BME280;28727;50.068;14.452;2023-04-23T09:40:51;98642.91;;;19.16;45.50
43115;BME280;28727;50.068;14.452;2023-04-23T09:43:29;98640.72;;;19.13;45.43
43115;BME280;28727;50.068;14.452;2023-04-23T09:46:01;98638.19;;;19.23;45.37
43115;BME280;28727;50.068;14.452;2023-04-23T09:48:40;98639.19;;;19.34;45.22
43115;BME280;28727;50.068;14.452;2023-04-23T09:51:39;98635.16;;;19.48;44.86
43115;BME280;28727;50.068;14.452;2023-04-23T09:54:15;98630.94;;;19.52;45.08
43115;BME280;28727;50.068;14.452;2023-04-23T09:56:50;98634.66;;;19.51;45.28
43115;BME280;28727;50.068;14.452;2023-04-23T09:59:27;98634.78;;;19.44;45.26
43115;BME280;28727;50.068;14.452;2023-04-23T10:02:18;98637.16;;;19.41;45.56
43115;BME280;28727;50.068;14.452;2023-04-23T10:04:50;98637.75;;;19.43;45.52
43115;BME280;28727;50.068;14.452;2023-04-23T10:07:41;98641.84;;;19.34;45.99
43115;BME280;28727;50.068;14.452;2023-04-23T10:10:14;98642.91;;;19.16;46.01
43115;BME280;28727;50.068;14.452;2023-04-23T10:12:46;98645.53;;;18.99;46.28
43115;BME280;28727;50.068;14.452;2023-04-23T10:15:30;98655.50;;;18.87;46.54
43115;BME280;28727;50.068;14.452;2023-04-23T10:18:04;98645.50;;;18.83;47.27
43115;BME280;28727;50.068;14.452;2023-04-23T10:20:36;98658.13;;;18.70;47.75
43115;BME280;28727;50.068;14.452;2023-04-23T10:23:10;98650.00;;;18.54;48.51
43115;BME280;28727;50.068;14.452;2023-04-23T10:25:42;98654.34;;;18.43;49.14
43115;BME280;28727;50.068;14.452;2023-04-23T10:28:18;98652.34;;;18.38;49.83
43115;BME280;28727;50.068;14.452;2023-04-23T10:30:58;98651.56;;;18.26;50.15
43115;BME280;28727;50.068;14.452;2023-04-23T10:33:30;98653.31;;;18.21;50.70
43115;BME280;28727;50.068;14.452;2023-04-23T10:36:13;98640.75;;;18.21;50.65
43115;BME280;28727;50.068;14.452;2023-04-23T10:38:45;98649.81;;;18.20;50.83
43115;BME280;28727;50.068;14.452;2023-04-23T10:41:35;98647.03;;;18.27;50.66
43115;BME280;28727;50.068;14.452;2023-04-23T10:44:12;98646.38;;;18.20;50.99
43115;BME280;28727;50.068;14.452;2023-04-23T10:46:54;98639.13;;;18.09;51.30
43115;BME280;28727;50.068;14.452;2023-04-23T10:49:30;98640.06;;;18.02;51.20
43115;BME280;28727;50.068;14.452;2023-04-23T10:52:07;98638.00;;;18.05;50.95
43115;BME280;28727;50.068;14.452;2023-04-23T10:55:00;98638.78;;;18.17;51.11
43115;BME280;28727;50.068;14.452;2023-04-23T10:58:05;98636.72;;;18.07;51.51
43115;BME280;28727;50.068;14.452;2023-04-23T11:06:18;98628.59;;;18.02;51.26
43115;BME280;28727;50.068;14.452;2023-04-23T11:08:53;98624.03;;;18.02;51.42
43115;BME280;28727;50.068;14.452;2023-04-23T11:11:51;98625.13;;;18.02;52.07
43115;BME280;28727;50.068;14.452;2023-04-23T11:14:48;98634.72;;;18.02;52.49
43115;BME280;28727;50.068;14.452;2023-04-23T11:20:21;98621.63;;;18.01;54.05
43115;BME280;28727;50.068;14.452;2023-04-23T11:22:54;98625.69;;;17.92;53.61
43115;BME280;28727;50.068;14.452;2023-04-23T11:25:27;98619.28;;;17.93;54.42
43115;BME280;28727;50.068;14.452;2023-04-23T11:28:24;98622.56;;;17.95;53.83
43115;BME280;28727;50.068;14.452;2023-04-23T11:30:56;98615.69;;;17.87;54.72
43115;BME280;28727;50.068;14.452;2023-04-23T11:33:28;98607.91;;;17.86;54.40
43115;BME280;28727;50.068;14.452;2023-04-23T11:36:02;98607.25;;;17.79;54.21
43115;BME280;28727;50.068;14.452;2023-04-23T11:38:34;98614.31;;;17.73;54.00
43115;BME280;28727;50.068;14.452;2023-04-23T11:41:06;98614.91;;;17.64;54.16
43115;BME280;28727;50.068;14.452;2023-04-23T11:43:38;98628.09;;;17.58;54.85
43115;BME280;28727;50.068;14.452;2023-04-23T11:46:10;98637.75;;;17.59;54.93
43115;BME280;28727;50.068;14.452;2023-04-23T11:48:41;98632.97;;;17.50;54.77
43115;BME280;28727;50.068;14.452;2023-04-23T11:51:13;98641.88;;;17.44;55.16
43115;BME280;28727;50.068;14.452;2023-04-23T11:53:47;98637.38;;;17.44;55.53
43115;BME280;28727;50.068;14.452;2023-04-23T11:56:21;98635.88;;;17.48;55.47
43115;BME280;28727;50.068;14.452;2023-04-23T11:58:58;98635.50;;;17.45;55.45
43115;BME280;28727;50.068;14.452;2023-04-23T12:01:57;98633.31;;;17.42;55.30
43115;BME280;28727;50.068;14.452;2023-04-23T12:04:31;98635.75;;;17.43;55.30
43115;BME280;28727;50.068;14.452;2023-04-23T12:07:03;98632.09;;;17.26;55.43
43115;BME280;28727;50.068;14.452;2023-04-23T12:09:57;98634.91;;;17.19;55.45
43115;BME280;28727;50.068;14.452;2023-04-23T12:12:34;98638.63;;;17.18;55.55
43115;BME280;28727;50.068;14.452;2023-04-23T12:15:06;98627.56;;;17.15;55.37
43115;BME280;28727;50.068;14.452;2023-04-23T12:17:38;98631.75;;;17.11;55.66
43115;BME280;28727;50.068;14.452;2023-04-23T12:20:16;98631.31;;;17.14;55.81
43115;BME280;28727;50.068;14.452;2023-04-23T12:22:48;98636.41;;;17.27;55.63
43115;BME280;28727;50.068;14.452;2023-04-23T12:25:24;98633.88;;;17.32;55.37
43115;BME280;28727;50.068;14.452;2023-04-23T12:27:58;98629.94;;;17.35;55.02
43115;BME280;28727;50.068;14.452;2023-04-23T12:30:42;98628.41;;;17.39;54.27
43115;BME280;28727;50.068;14.452;2023-04-23T12:33:21;98628.22;;;17.52;53.97
43115;BME280;28727;50.068;14.452;2023-04-23T12:35:53;98619.66;;;17.62;53.96
43115;BME280;28727;50.068;14.452;2023-04-23T12:38:27;98623.50;;;17.66;53.77
43115;BME280;28727;50.068;14.452;2023-04-23T12:40:59;98621.28;;;17.74;53.57
43115;BME280;28727;50.068;14.452;2023-04-23T12:43:32;98618.16;;;17.77;53.02
43115;BME280;28727;50.068;14.452;2023-04-23T12:46:04;98615.94;;;17.86;52.78
43115;BME280;28727;50.068;14.452;2023-04-23T12:48:35;98616.84;;;17.91;52.26
43115;BME280;28727;50.068;14.452;2023-04-23T12:51:07;98608.16;;;17.96;52.18
43115;BME280;28727;50.068;14.452;2023-04-23T12:53:39;98612.56;;;18.02;52.57
43115;BME280;28727;50.068;14.452;2023-04-23T12:56:11;98605.91;;;18.05;52.74
43115;BME280;28727;50.068;14.452;2023-04-23T12:58:45;98608.47;;;18.11;53.37
43115;BME280;28727;50.068;14.452;2023-04-23T13:01:17;98607.31;;;18.19;53.32
43115;BME280;28727;50.068;14.452;2023-04-23T13:03:49;98602.66;;;18.26;53.46
43115;BME280;28727;50.068;14.452;2023-04-23T13:06:21;98609.22;;;18.35;51.71
43115;BME280;28727;50.068;14.452;2023-04-23T13:08:53;98599.72;;;18.27;51.87
43115;BME280;28727;50.068;14.452;2023-04-23T13:11:26;98604.78;;;18.40;51.75
43115;BME280;28727;50.068;14.452;2023-04-23T13:13:58;98606.75;;;18.57;51.75
43115;BME280;28727;50.068;14.452;2023-04-23T13:16:30;98601.66;;;18.55;52.12
43115;BME280;28727;50.068;14.452;2023-04-23T13:19:01;98603.72;;;18.53;52.18
43115;BME280;28727;50.068;14.452;2023-04-23T13:21:36;98590.63;;;18.68;52.04
43115;BME280;28727;50.068;14.452;2023-04-23T13:24:08;98591.00;;;18.72;51.18
43115;BME280;28727;50.068;14.452;2023-04-23T13:26:40;98582.09;;;18.83;51.13
43115;BME280;28727;50.068;14.452;2023-04-23T13:29:11;98574.97;;;18.89;50.49
43115;BME280;28727;50.068;14.452;2023-04-23T13:31:43;98569.84;;;18.87;50.21
43115;BME280;28727;50.068;14.452;2023-04-23T13:34:16;98562.88;;;18.86;49.90
43115;BME280;28727;50.068;14.452;2023-04-23T13:36:49;98568.31;;;18.91;49.87
43115;BME280;28727;50.068;14.452;2023-04-23T13:39:21;98572.38;;;18.94;50.31
43115;BME280;28727;50.068;14.452;2023-04-23T13:41:54;98566.34;;;18.87;50.16